Time;durP1;ratioP1;P1;durP2;ratioP2;P2;SDS_P1;SDS_P2;PMS_P1;PMS_P2;Temp;Humidity;BMP_temperature;BMP_pressure;BME280_temperature;BME280_humidity;BME280_pressure;Samples;Min_cycle;Max_cycle;Signal;HPM_P1;HPM_P2
2021/11/25 00:02:00;;;;;;;12.35;7.45;;;5.30;84.20;;;;;;4978160;28;20035;-76
2021/11/25 00:04:26;;;;;;;11.52;7.88;;;5.20;84.50;;;;;;4980202;28;20038;-76
2021/11/25 00:06:51;;;;;;;12.18;7.57;;;5.20;84.60;;;;;;4984132;28;20049;-75
2021/11/25 00:09:17;;;;;;;14.15;8.07;;;5.20;84.10;;;;;;4981357;28;20038;-75
2021/11/25 00:11:42;;;;;;;11.23;7.68;;;5.30;84.10;;;;;;4985489;28;20026;-76
2021/11/25 00:14:08;;;;;;;11.25;7.45;;;5.20;84.80;;;;;;4972609;28;20050;-75
2021/11/25 00:16:33;;;;;;;10.20;7.47;;;5.20;84.40;;;;;;4977653;28;20479;-75
2021/11/25 00:18:59;;;;;;;10.95;7.60;;;5.20;84.70;;;;;;4976710;28;20030;-74
2021/11/25 00:21:25;;;;;;;12.63;8.25;;;5.10;84.70;;;;;;4984753;28;20499;-75
2021/11/25 00:23:51;;;;;;;10.88;7.75;;;5.10;84.90;;;;;;4986534;28;20149;-75
2021/11/25 00:26:17;;;;;;;11.10;7.35;;;5.10;85.40;;;;;;4980712;28;20097;-75
2021/11/25 00:28:43;;;;;;;9.93;7.10;;;5.10;85.50;;;;;;4978649;28;20356;-74
2021/11/25 00:31:09;;;;;;;13.35;7.70;;;5.00;85.80;;;;;;4982522;28;20029;-75
2021/11/25 00:33:34;;;;;;;12.07;7.72;;;5.10;86.00;;;;;;4985235;28;20075;-75
2021/11/25 00:36:00;;;;;;;10.93;7.47;;;5.00;86.20;;;;;;4977329;28;20122;-75
2021/11/25 00:38:26;;;;;;;11.18;7.53;;;5.00;86.30;;;;;;4978284;28;20057;-75
2021/11/25 00:40:52;;;;;;;10.55;7.07;;;5.00;85.80;;;;;;4981477;28;20280;-76
2021/11/25 00:43:17;;;;;;;12.20;8.05;;;5.00;86.30;;;;;;4986106;28;20096;-74
2021/11/25 00:45:43;;;;;;;11.45;7.63;;;5.00;86.10;;;;;;4977584;28;20061;-75
2021/11/25 00:48:09;;;;;;;13.32;7.82;;;5.00;86.60;;;;;;4981743;28;20049;-74
2021/11/25 00:50:35;;;;;;;10.82;8.02;;;5.00;86.70;;;;;;4999686;28;20175;-76
2021/11/25 00:53:00;;;;;;;13.18;7.68;;;5.00;86.90;;;;;;4985361;28;20501;-74
2021/11/25 00:55:26;;;;;;;12.15;8.20;;;5.00;87.10;;;;;;4980354;28;20026;-75
2021/11/25 00:57:52;;;;;;;11.35;7.85;;;4.90;87.40;;;;;;4978830;28;20172;-75
2021/11/25 01:00:21;;;;;;;10.57;7.60;;;4.90;87.40;;;;;;4982160;28;20563;-75
2021/11/25 01:02:48;;;;;;;14.13;7.97;;;5.00;87.30;;;;;;4981271;28;20035;-75
2021/11/25 01:05:16;;;;;;;11.68;7.95;;;4.90;87.70;;;;;;4980661;28;20130;-76
2021/11/25 01:07:42;;;;;;;13.45;8.80;;;4.90;87.70;;;;;;4981095;28;22069;-77
2021/11/25 01:10:11;;;;;;;13.88;8.07;;;4.90;87.70;;;;;;4981878;28;20101;-76
2021/11/25 01:12:37;;;;;;;13.98;9.05;;;4.90;87.40;;;;;;4980962;28;20054;-73
2021/11/25 01:15:05;;;;;;;12.80;8.90;;;4.90;87.20;;;;;;4980179;28;20026;-75
2021/11/25 01:17:31;;;;;;;12.68;9.05;;;4.90;86.90;;;;;;4983911;28;20026;-73
2021/11/25 01:19:56;;;;;;;12.98;8.15;;;4.90;87.20;;;;;;4981623;28;20376;-76
2021/11/25 01:22:22;;;;;;;12.50;8.98;;;4.90;87.30;;;;;;4981132;28;20087;-75
2021/11/25 01:24:48;;;;;;;13.15;8.88;;;4.90;87.80;;;;;;4980625;28;20041;-75
2021/11/25 01:27:13;;;;;;;13.00;8.73;;;4.90;88.70;;;;;;4978578;28;20041;-75
2021/11/25 01:29:39;;;;;;;12.45;9.00;;;4.80;88.40;;;;;;4980323;28;20502;-75
2021/11/25 01:32:05;;;;;;;14.07;9.20;;;4.80;88.50;;;;;;4983120;28;20033;-74
2021/11/25 01:34:30;;;;;;;14.43;9.48;;;4.80;88.50;;;;;;4983049;28;20423;-76
2021/11/25 01:36:55;;;;;;;15.57;9.43;;;4.80;88.20;;;;;;4982556;28;20023;-76
2021/11/25 01:39:21;;;;;;;12.45;8.50;;;4.80;88.40;;;;;;4984762;28;20432;-75
2021/11/25 01:41:47;;;;;;;13.00;8.85;;;4.80;88.70;;;;;;4979142;28;20208;-75
2021/11/25 01:44:13;;;;;;;14.90;9.35;;;4.80;88.60;;;;;;4983655;28;20494;-75
2021/11/25 01:46:40;;;;;;;12.32;9.23;;;4.80;89.30;;;;;;4975346;28;20097;-76
2021/11/25 01:49:06;;;;;;;13.07;9.25;;;4.70;89.30;;;;;;4978743;28;20034;-75
2021/11/25 01:51:32;;;;;;;16.92;9.45;;;4.70;89.00;;;;;;4980436;28;20026;-74
2021/11/25 01:53:57;;;;;;;12.55;9.15;;;4.80;89.40;;;;;;4971775;28;20038;-75
2021/11/25 01:56:23;;;;;;;14.35;8.93;;;4.70;89.50;;;;;;4982138;28;20026;-75
2021/11/25 01:58:50;;;;;;;13.20;9.43;;;4.70;89.40;;;;;;4982629;28;20022;-76
2021/11/25 02:01:18;;;;;;;14.52;9.55;;;4.70;89.30;;;;;;4979127;28;20392;-77
2021/11/25 02:03:43;;;;;;;11.18;8.30;;;4.70;89.20;;;;;;4980863;28;20245;-74
2021/11/25 02:06:09;;;;;;;13.82;8.15;;;4.70;89.00;;;;;;4985120;28;20100;-76
2021/11/25 02:08:35;;;;;;;11.05;8.00;;;4.70;88.40;;;;;;4978093;28;20022;-75
2021/11/25 02:11:01;;;;;;;12.27;7.70;;;4.70;88.70;;;;;;4983133;28;20096;-75
2021/11/25 02:13:28;;;;;;;13.07;8.25;;;4.70;88.80;;;;;;4980700;28;20050;-77
2021/11/25 02:15:54;;;;;;;15.13;8.50;;;4.70;89.00;;;;;;4980238;28;20491;-76
2021/11/25 02:18:22;;;;;;;12.70;7.65;;;4.60;89.20;;;;;;4978763;28;20107;-75
2021/11/25 02:20:52;;;;;;;9.95;7.40;;;4.70;88.90;;;;;;4978290;28;20077;-75
2021/11/25 02:23:19;;;;;;;13.02;7.53;;;4.70;88.70;;;;;;4976071;28;20038;-75
2021/11/25 02:25:46;;;;;;;11.07;7.75;;;4.70;88.50;;;;;;4986416;28;20034;-75
2021/11/25 02:28:12;;;;;;;13.80;8.25;;;4.70;88.60;;;;;;4980505;28;20084;-75
2021/11/25 02:30:39;;;;;;;12.13;7.32;;;4.70;88.60;;;;;;4980092;28;20061;-75
2021/11/25 02:33:04;;;;;;;10.73;7.60;;;4.70;88.40;;;;;;4976452;28;20378;-75
2021/11/25 02:35:33;;;;;;;13.57;8.00;;;4.70;88.70;;;;;;4974759;28;20113;-75
2021/11/25 02:37:59;;;;;;;11.77;7.68;;;4.70;88.40;;;;;;4975198;28;20564;-75
2021/11/25 02:40:27;;;;;;;11.85;7.72;;;4.70;88.30;;;;;;4975753;28;20085;-75
2021/11/25 02:42:55;;;;;;;11.77;7.95;;;4.60;88.10;;;;;;4977040;28;20038;-75
2021/11/25 02:45:22;;;;;;;13.30;8.30;;;4.70;88.10;;;;;;4978332;28;20027;-75
2021/11/25 02:47:48;;;;;;;12.18;7.72;;;4.60;88.20;;;;;;4973246;28;20344;-75
2021/11/25 02:50:19;;;;;;;13.98;7.95;;;4.60;88.40;;;;;;4980187;28;20053;-75
2021/11/25 02:52:44;;;;;;;11.68;7.78;;;4.60;88.60;;;;;;4975667;28;20400;-75
2021/11/25 02:55:11;;;;;;;13.05;8.07;;;4.60;88.70;;;;;;4976993;28;20125;-74
2021/11/25 02:57:37;;;;;;;13.13;7.55;;;4.60;88.50;;;;;;4981747;28;20718;-75
2021/11/25 03:00:29;;;;;;;12.80;7.38;;;4.70;88.30;;;;;;4978772;28;20030;-74
2021/11/25 03:03:05;;;;;;;15.02;7.72;;;4.60;88.20;;;;;;4972616;28;20035;-75
2021/11/25 03:05:31;;;;;;;11.13;7.97;;;4.60;88.30;;;;;;4976344;28;20062;-75
2021/11/25 03:08:01;;;;;;;12.15;7.93;;;4.60;88.50;;;;;;4971407;28;20487;-75
2021/11/25 03:10:26;;;;;;;13.82;8.95;;;4.60;88.30;;;;;;4978191;28;20071;-75
2021/11/25 03:12:52;;;;;;;11.65;8.23;;;4.60;88.20;;;;;;4973296;28;20030;-74
2021/11/25 03:15:17;;;;;;;13.15;8.80;;;4.60;88.20;;;;;;4973555;28;20084;-74
2021/11/25 03:17:43;;;;;;;13.07;9.00;;;4.60;88.40;;;;;;4976273;28;20019;-73
2021/11/25 03:20:11;;;;;;;13.55;8.55;;;4.60;87.40;;;;;;4979426;28;20050;-75
2021/11/25 03:22:37;;;;;;;12.70;8.80;;;4.60;88.10;;;;;;4979014;28;20108;-76
2021/11/25 03:25:04;;;;;;;15.02;9.20;;;4.60;87.90;;;;;;4993058;28;20496;-74
2021/11/25 03:27:29;;;;;;;14.65;9.02;;;4.60;87.90;;;;;;4994633;28;20200;-76
2021/11/25 03:29:55;;;;;;;16.77;9.35;;;4.60;87.20;;;;;;4970748;28;20118;-74
2021/11/25 03:32:20;;;;;;;13.25;8.52;;;4.60;87.30;;;;;;4984108;28;20034;-75
2021/11/25 03:34:46;;;;;;;13.23;8.20;;;4.60;87.50;;;;;;4979155;28;20079;-75
2021/11/25 03:37:12;;;;;;;14.48;9.60;;;4.50;87.50;;;;;;4978131;28;20371;-76
2021/11/25 03:39:38;;;;;;;11.93;8.90;;;4.40;87.60;;;;;;4981530;28;20038;-76
2021/11/25 03:42:04;;;;;;;13.57;9.25;;;4.40;87.70;;;;;;4981033;28;20053;-75
2021/11/25 03:44:29;;;;;;;13.98;9.20;;;4.40;87.70;;;;;;4990885;28;20480;-75
2021/11/25 03:46:55;;;;;;;15.27;9.90;;;4.30;88.00;;;;;;4974564;28;20039;-75
2021/11/25 03:49:20;;;;;;;14.00;9.82;;;4.40;88.30;;;;;;4978915;28;20133;-75
2021/11/25 03:51:46;;;;;;;13.63;9.50;;;4.30;88.60;;;;;;4990737;28;20080;-76
2021/11/25 03:54:11;;;;;;;16.30;10.40;;;4.30;88.90;;;;;;4983613;23;20136;-66
2021/11/25 03:56:37;;;;;;;14.60;9.50;;;4.30;89.30;;;;;;4963401;28;20712;-66
2021/11/25 03:59:03;;;;;;;15.45;9.95;;;4.30;89.70;;;;;;4958872;28;20049;-66
2021/11/25 04:01:29;;;;;;;15.82;10.27;;;4.30;89.60;;;;;;4953629;28;20024;-66
2021/11/25 04:03:54;;;;;;;16.00;10.23;;;4.30;89.80;;;;;;4957927;28;20030;-66
2021/11/25 04:06:20;;;;;;;14.52;10.05;;;4.30;90.20;;;;;;4960317;28;20102;-66
2021/11/25 04:08:46;;;;;;;15.15;10.30;;;4.30;90.10;;;;;;4950064;28;20644;-66
2021/11/25 04:11:11;;;;;;;15.13;10.00;;;4.20;90.40;;;;;;4958307;28;20127;-66
2021/11/25 04:13:37;;;;;;;15.70;10.60;;;4.20;90.80;;;;;;4964488;28;20503;-66
2021/11/25 04:16:03;;;;;;;14.98;10.00;;;4.20;90.90;;;;;;4960812;28;20466;-66
2021/11/25 04:18:28;;;;;;;18.52;11.30;;;4.10;91.00;;;;;;4955217;28;20035;-66
2021/11/25 04:20:54;;;;;;;17.15;10.20;;;4.10;91.20;;;;;;4963080;28;20023;-66
2021/11/25 04:23:20;;;;;;;17.85;10.10;;;4.10;91.30;;;;;;4961096;28;20422;-66
2021/11/25 04:25:45;;;;;;;16.88;10.65;;;4.10;91.30;;;;;;4957158;28;20093;-66
2021/11/25 04:28:11;;;;;;;16.45;10.60;;;4.10;91.30;;;;;;4955283;28;20037;-66
2021/11/25 04:35:50;;;;;;;15.68;10.10;;;4.00;91.90;;;;;;4963421;28;20501;-66
2021/11/25 04:38:18;;;;;;;16.63;11.38;;;4.00;92.10;;;;;;4962119;28;20051;-66
2021/11/25 04:40:50;;;;;;;18.63;10.73;;;4.00;91.90;;;;;;4960891;28;20129;-66
2021/11/25 04:43:17;;;;;;;17.70;11.95;;;4.00;92.10;;;;;;4957647;28;20494;-66
2021/11/25 04:45:45;;;;;;;18.70;11.70;;;4.00;92.20;;;;;;4959912;28;20398;-66
2021/11/25 04:48:12;;;;;;;16.48;11.13;;;3.90;91.90;;;;;;4961541;28;20031;-66
2021/11/25 04:50:39;;;;;;;19.10;11.77;;;4.00;92.00;;;;;;4959219;28;20038;-66
2021/11/25 04:53:06;;;;;;;18.38;11.73;;;4.00;92.30;;;;;;4969048;28;20038;-66
2021/11/25 04:55:32;;;;;;;15.88;11.43;;;4.00;92.40;;;;;;4958920;28;20122;-66
2021/11/25 04:57:57;;;;;;;16.73;11.68;;;4.00;92.20;;;;;;4965638;28;20678;-66
2021/11/25 05:00:24;;;;;;;17.27;11.45;;;4.00;92.30;;;;;;4949953;28;20566;-66
2021/11/25 05:02:49;;;;;;;15.80;11.32;;;4.00;92.00;;;;;;4964969;28;20097;-66
2021/11/25 05:05:16;;;;;;;17.73;12.02;;;4.00;92.10;;;;;;4964791;28;20128;-66
2021/11/25 05:07:42;;;;;;;17.88;11.60;;;3.90;92.00;;;;;;4950132;28;20482;-66
2021/11/25 05:10:09;;;;;;;18.48;11.77;;;3.90;91.90;;;;;;4961059;28;20032;-66
2021/11/25 05:12:36;;;;;;;20.00;12.65;;;4.00;91.80;;;;;;4965619;28;20110;-66
2021/11/25 05:15:04;;;;;;;17.75;12.20;;;3.90;91.90;;;;;;4960304;28;20402;-66
2021/11/25 05:17:29;;;;;;;18.42;11.95;;;3.90;92.00;;;;;;4959642;28;20038;-66
2021/11/25 05:19:55;;;;;;;17.10;12.00;;;3.90;91.80;;;;;;4956383;28;20397;-66
2021/11/25 05:22:21;;;;;;;18.60;12.57;;;4.00;91.70;;;;;;4954322;28;20079;-66
2021/11/25 05:24:46;;;;;;;15.82;10.40;;;3.90;91.80;;;;;;4953306;28;20031;-66
2021/11/25 05:27:12;;;;;;;17.50;11.70;;;4.00;91.70;;;;;;4965397;28;20553;-67
2021/11/25 05:29:37;;;;;;;16.80;11.43;;;4.00;91.70;;;;;;4957693;28;20215;-66
2021/11/25 05:32:07;;;;;;;21.92;12.85;;;4.00;91.70;;;;;;4962606;28;20034;-66
2021/11/25 05:34:32;;;;;;;16.73;11.38;;;3.90;91.80;;;;;;4960924;28;20031;-67
2021/11/25 05:36:58;;;;;;;20.05;12.82;;;3.90;91.30;;;;;;4961277;28;20035;-67
2021/11/25 05:39:23;;;;;;;16.95;11.60;;;3.90;91.00;;;;;;4951507;28;20375;-66
2021/11/25 05:41:49;;;;;;;16.38;11.48;;;3.90;91.10;;;;;;4955194;28;20031;-67
2021/11/25 05:44:15;;;;;;;17.13;11.00;;;3.90;91.00;;;;;;4961338;28;20229;-67
2021/11/25 05:46:41;;;;;;;17.13;10.98;;;3.90;90.80;;;;;;4953980;28;20090;-66
2021/11/25 05:49:06;;;;;;;18.92;12.25;;;3.90;90.70;;;;;;4963082;28;20566;-66
2021/11/25 05:51:33;;;;;;;16.55;11.50;;;3.90;90.60;;;;;;4963189;28;20031;-67
2021/11/25 05:53:58;;;;;;;16.48;11.50;;;3.90;90.30;;;;;;4963812;28;20041;-67
2021/11/25 05:56:24;;;;;;;16.48;10.85;;;3.90;90.80;;;;;;4954561;28;20405;-67
2021/11/25 05:58:49;;;;;;;17.88;11.63;;;3.90;91.10;;;;;;4951307;28;20054;-66
2021/11/25 06:01:15;;;;;;;20.05;11.98;;;3.90;91.00;;;;;;4949254;28;20031;-66
2021/11/25 06:03:41;;;;;;;20.08;12.20;;;3.90;91.10;;;;;;4952881;28;20502;-66
2021/11/25 06:06:06;;;;;;;17.95;11.57;;;3.90;91.20;;;;;;4946531;28;20023;-66
2021/11/25 06:08:32;;;;;;;15.70;10.88;;;3.90;91.20;;;;;;4953749;28;20130;-66
2021/11/25 06:11:02;;;;;;;16.77;11.05;;;3.90;91.10;;;;;;4959208;28;20039;-66
2021/11/25 06:13:27;;;;;;;17.17;11.33;;;3.90;90.70;;;;;;4957029;28;20434;-67
2021/11/25 06:15:53;;;;;;;18.02;11.82;;;3.90;90.80;;;;;;4952395;28;20106;-66
2021/11/25 06:18:19;;;;;;;18.42;12.10;;;3.90;90.80;;;;;;4956560;28;20126;-66
2021/11/25 06:20:44;;;;;;;17.77;12.82;;;3.90;90.80;;;;;;4956182;28;20026;-66
2021/11/25 06:23:10;;;;;;;19.70;12.07;;;3.90;91.00;;;;;;4958211;28;20026;-67
2021/11/25 06:25:35;;;;;;;18.38;12.20;;;3.90;90.60;;;;;;4953903;28;20045;-67
2021/11/25 06:28:01;;;;;;;19.00;12.77;;;3.90;90.20;;;;;;4952000;28;20035;-67
2021/11/25 06:30:26;;;;;;;19.85;12.55;;;3.90;90.50;;;;;;4957590;28;20546;-67
2021/11/25 06:32:52;;;;;;;20.50;12.20;;;3.80;90.70;;;;;;4958049;28;20306;-67
2021/11/25 06:35:20;;;;;;;20.17;12.68;;;3.80;90.70;;;;;;4954558;28;20101;-67
2021/11/25 06:37:47;;;;;;;20.65;13.50;;;3.80;90.90;;;;;;4971120;28;20023;-66
2021/11/25 06:40:15;;;;;;;20.95;13.30;;;3.80;91.10;;;;;;4952185;28;20027;-66
2021/11/25 06:42:42;;;;;;;19.00;12.50;;;3.80;90.80;;;;;;4956407;28;20038;-66
2021/11/25 06:45:08;;;;;;;20.02;13.63;;;3.80;90.50;;;;;;4953852;28;20382;-66
2021/11/25 06:47:33;;;;;;;19.25;13.00;;;3.80;90.70;;;;;;4953510;28;20035;-66
2021/11/25 06:49:59;;;;;;;18.92;13.35;;;3.80;90.60;;;;;;4945670;28;20098;-66
2021/11/25 06:52:24;;;;;;;19.60;12.88;;;3.90;90.10;;;;;;4957058;28;20050;-66
2021/11/25 06:54:50;;;;;;;22.00;13.18;;;3.90;90.30;;;;;;4959828;28;20031;-66
2021/11/25 06:57:16;;;;;;;20.35;13.05;;;3.90;90.40;;;;;;4966546;28;20022;-67
2021/11/25 06:59:41;;;;;;;19.65;13.07;;;3.90;90.30;;;;;;4961647;28;20058;-66
2021/11/25 07:02:07;;;;;;;21.27;13.15;;;3.90;90.30;;;;;;4966728;28;20056;-66
2021/11/25 07:04:33;;;;;;;19.65;13.48;;;4.00;90.00;;;;;;4961953;28;20651;-66
2021/11/25 07:06:59;;;;;;;19.58;13.88;;;4.00;89.90;;;;;;4971505;28;20038;-66
2021/11/25 07:09:24;;;;;;;21.25;13.65;;;3.90;89.90;;;;;;4973904;28;20042;-67
2021/11/25 07:11:50;;;;;;;18.95;12.82;;;4.00;89.40;;;;;;4966477;28;20034;-66
2021/11/25 07:14:15;;;;;;;20.52;13.32;;;4.00;89.50;;;;;;4961082;28;20022;-66
2021/11/25 07:16:41;;;;;;;22.77;13.10;;;3.90;89.70;;;;;;4949455;28;20371;-66
2021/11/25 07:19:06;;;;;;;18.75;13.43;;;3.90;89.90;;;;;;4960899;28;20116;-67
2021/11/25 07:21:32;;;;;;;19.45;13.80;;;3.80;90.10;;;;;;4961776;28;20028;-67
2021/11/25 07:23:58;;;;;;;19.83;14.52;;;3.80;90.10;;;;;;4955127;28;20066;-67
2021/11/25 07:26:24;;;;;;;22.17;14.55;;;3.80;90.30;;;;;;4964721;28;20089;-67
2021/11/25 07:28:49;;;;;;;22.27;14.82;;;3.80;90.30;;;;;;4959069;28;20082;-66
2021/11/25 07:31:15;;;;;;;23.20;14.45;;;3.80;90.40;;;;;;4965699;28;20489;-66
2021/11/25 07:33:41;;;;;;;20.45;14.57;;;3.80;90.40;;;;;;4959445;28;20051;-66
2021/11/25 07:36:06;;;;;;;22.30;14.80;;;3.80;90.30;;;;;;4963482;28;20027;-66
2021/11/25 07:38:33;;;;;;;24.27;14.32;;;3.80;90.30;;;;;;4958479;28;20097;-67
2021/11/25 07:40:59;;;;;;;23.70;15.10;;;3.80;90.40;;;;;;4963356;28;20401;-66
2021/11/25 07:43:26;;;;;;;22.42;14.68;;;3.80;90.70;;;;;;4960155;28;20267;-66
2021/11/25 07:45:52;;;;;;;23.95;15.27;;;3.80;90.50;;;;;;4965905;28;20041;-66
2021/11/25 07:48:18;;;;;;;24.27;15.82;;;3.90;90.30;;;;;;4966445;28;20043;-66
2021/11/25 07:50:43;;;;;;;24.25;16.13;;;3.90;90.20;;;;;;4968071;28;20030;-66
2021/11/25 07:53:09;;;;;;;31.00;16.83;;;3.90;90.20;;;;;;4959054;28;20094;-66
2021/11/25 07:55:35;;;;;;;25.33;16.88;;;4.00;90.20;;;;;;4968578;28;20050;-67
2021/11/25 07:58:00;;;;;;;26.25;16.30;;;4.10;90.00;;;;;;4958736;28;20068;-66
2021/11/25 08:00:28;;;;;;;26.05;16.30;;;4.10;89.90;;;;;;4971895;28;20019;-66
2021/11/25 08:02:54;;;;;;;25.73;16.88;;;4.20;89.70;;;;;;4967183;28;20031;-67
2021/11/25 08:05:24;;;;;;;24.05;16.95;;;4.20;89.50;;;;;;4960085;28;20063;-66
2021/11/25 08:07:49;;;;;;;25.77;17.75;;;4.30;89.50;;;;;;4955369;28;20030;-66
2021/11/25 08:10:15;;;;;;;26.63;17.25;;;4.30;89.80;;;;;;4965892;28;20490;-66
2021/11/25 08:12:42;;;;;;;27.13;17.48;;;4.40;90.00;;;;;;4968157;28;20045;-66
2021/11/25 08:15:08;;;;;;;26.92;18.13;;;4.50;89.80;;;;;;4948857;28;20132;-67
2021/11/25 08:17:33;;;;;;;28.58;17.27;;;4.50;89.50;;;;;;4963445;28;20027;-66
2021/11/25 08:19:59;;;;;;;28.83;18.58;;;4.40;89.40;;;;;;4964700;28;20754;-67
2021/11/25 08:22:24;;;;;;;28.17;17.83;;;4.40;89.60;;;;;;4959437;28;20479;-66
2021/11/25 08:24:50;;;;;;;29.20;17.92;;;4.30;89.70;;;;;;4958907;28;20039;-67
2021/11/25 08:27:16;;;;;;;29.27;18.38;;;4.30;90.00;;;;;;4964622;28;20034;-67
2021/11/25 08:29:43;;;;;;;27.92;17.92;;;4.30;90.30;;;;;;4961197;28;20086;-66
2021/11/25 08:32:09;;;;;;;30.38;19.13;;;4.40;90.20;;;;;;4960361;28;20095;-66
2021/11/25 08:34:36;;;;;;;32.33;18.80;;;4.50;90.60;;;;;;4959547;28;20437;-66
2021/11/25 08:37:01;;;;;;;29.80;19.23;;;4.50;89.90;;;;;;4967085;28;20477;-67
2021/11/25 08:39:27;;;;;;;29.55;18.77;;;4.60;89.80;;;;;;4964249;28;20033;-66
2021/11/25 08:41:53;;;;;;;30.60;19.00;;;4.70;89.40;;;;;;4961597;28;20126;-67
2021/11/25 08:44:18;;;;;;;34.45;20.40;;;4.80;89.40;;;;;;4966323;28;20023;-66
2021/11/25 08:46:44;;;;;;;28.98;19.15;;;4.80;89.60;;;;;;4963416;28;20042;-67
2021/11/25 08:49:09;;;;;;;32.33;19.88;;;5.00;89.70;;;;;;4954913;28;20035;-66
2021/11/25 08:51:35;;;;;;;28.75;18.50;;;5.00;89.30;;;;;;4959670;28;20039;-66
2021/11/25 08:54:01;;;;;;;28.85;19.00;;;5.10;89.30;;;;;;4960974;28;20039;-66
2021/11/25 08:56:30;;;;;;;32.75;20.00;;;5.00;89.10;;;;;;4966821;28;20042;-66
2021/11/25 08:58:56;;;;;;;31.30;19.88;;;5.00;89.40;;;;;;4960311;28;20050;-66
2021/11/25 09:01:22;;;;;;;33.53;19.70;;;5.00;89.10;;;;;;4963594;28;20035;-67
2021/11/25 09:03:47;;;;;;;32.83;19.95;;;5.00;89.10;;;;;;4964140;28;20121;-66
2021/11/25 09:06:14;;;;;;;30.30;20.08;;;5.00;89.30;;;;;;4968376;28;20030;-66
2021/11/25 09:08:39;;;;;;;33.60;20.52;;;4.90;89.40;;;;;;4960612;28;20449;-66
2021/11/25 09:11:05;;;;;;;35.92;21.63;;;5.00;89.20;;;;;;4961028;28;20027;-67
2021/11/25 09:13:30;;;;;;;31.75;20.10;;;4.90;89.30;;;;;;4961985;28;20094;-66
2021/11/25 09:15:57;;;;;;;33.00;20.85;;;5.00;89.70;;;;;;4963683;28;20247;-67
2021/11/25 09:18:23;;;;;;;32.55;19.73;;;5.00;89.70;;;;;;4960586;28;20031;-67
2021/11/25 09:20:48;;;;;;;34.15;21.98;;;5.00;90.10;;;;;;4958977;28;20470;-67
2021/11/25 09:23:17;;;;;;;34.88;21.90;;;5.10;90.00;;;;;;4965618;28;20434;-67
2021/11/25 09:25:44;;;;;;;37.25;21.50;;;5.10;89.80;;;;;;4962953;28;20039;-66
2021/11/25 09:28:13;;;;;;;32.97;21.13;;;5.10;89.90;;;;;;4961065;28;20066;-66
2021/11/25 09:30:39;;;;;;;34.33;21.75;;;5.10;89.90;;;;;;4954765;28;20123;-67
2021/11/25 09:33:06;;;;;;;37.22;21.45;;;5.10;90.00;;;;;;4964058;28;20113;-67
2021/11/25 09:35:31;;;;;;;34.70;22.02;;;5.20;90.30;;;;;;4958386;28;20031;-67
2021/11/25 09:37:57;;;;;;;34.58;21.80;;;5.10;90.00;;;;;;4969860;28;20039;-66
2021/11/25 09:40:24;;;;;;;36.30;21.73;;;5.20;89.90;;;;;;4952889;28;20027;-67
2021/11/25 09:42:52;;;;;;;36.28;21.98;;;5.20;89.70;;;;;;4965732;28;20023;-67
2021/11/25 09:45:22;;;;;;;37.50;22.25;;;5.20;89.40;;;;;;4958427;28;20041;-67
2021/11/25 09:47:53;;;;;;;34.55;22.20;;;5.30;89.80;;;;;;4960602;28;20034;-67
2021/11/25 09:50:20;;;;;;;;;;;5.30;89.70;;;;;;4957616;28;20113;-67
2021/11/25 09:52:49;;;;;;;34.45;22.00;;;5.40;89.30;;;;;;4982080;23;19917;-74
2021/11/25 09:55:14;;;;;;;38.20;22.45;;;5.40;89.60;;;;;;4956436;28;20421;-76
2021/11/25 09:57:40;;;;;;;37.38;23.48;;;5.50;89.70;;;;;;4944353;28;20114;-75
2021/11/25 10:00:07;;;;;;;36.72;21.90;;;5.50;89.40;;;;;;4953233;28;20065;-73
2021/11/25 10:02:32;;;;;;;36.20;22.48;;;5.50;89.20;;;;;;4956896;28;20109;-76
2021/11/25 10:04:58;;;;;;;35.83;22.88;;;5.50;89.40;;;;;;4935291;29;20063;-75
2021/11/25 10:07:34;;;;;;;35.60;22.25;;;5.60;89.50;;;;;;4927171;29;20099;-73
2021/11/25 10:10:26;;;;;;;36.28;22.15;;;5.60;89.40;;;;;;4929992;29;20047;-75
2021/11/25 10:12:58;;;;;;;37.47;22.13;;;5.60;89.70;;;;;;4944243;28;20024;-75
2021/11/25 10:15:38;;;;;;;37.65;22.17;;;5.70;89.50;;;;;;4928312;29;20019;-75
2021/11/25 10:18:12;;;;;;;37.58;21.83;;;5.70;89.70;;;;;;4927376;29;20045;-75
2021/11/25 10:20:43;;;;;;;36.40;22.33;;;5.70;89.30;;;;;;4942649;28;20036;-75
2021/11/25 10:23:21;;;;;;;35.10;21.73;;;5.70;89.30;;;;;;4938171;29;20503;-75
2021/11/25 10:25:50;;;;;;;34.80;21.63;;;5.70;89.20;;;;;;4932045;28;20118;-77
2021/11/25 10:28:36;;;;;;;37.83;21.42;;;5.80;89.60;;;;;;4931873;29;20341;-76
2021/11/25 10:31:07;;;;;;;38.42;22.65;;;5.80;89.20;;;;;;4926422;29;20393;-75
2021/11/25 10:33:46;;;;;;;40.80;24.33;;;5.80;89.60;;;;;;4934034;28;20030;-74
2021/11/25 10:38:59;;;;;;;38.70;24.08;;;5.80;89.50;;;;;;4934888;28;20092;-75
2021/11/25 10:41:27;;;;;;;37.83;23.02;;;6.00;89.90;;;;;;4936693;29;20454;-77
2021/11/25 10:44:24;;;;;;;43.60;23.20;;;6.00;89.60;;;;;;4943292;28;20528;-76
2021/11/25 10:46:59;;;;;;;40.58;22.50;;;5.90;89.50;;;;;;4928020;29;20179;-76
2021/11/25 10:49:47;;;;;;;35.30;22.27;;;5.80;89.50;;;;;;4931574;29;20259;-78
2021/11/25 10:52:34;;;;;;;35.42;22.45;;;5.90;89.50;;;;;;4934035;29;20027;-76
2021/11/25 10:55:05;;;;;;;40.60;22.60;;;6.10;89.60;;;;;;4931470;28;20462;-79
2021/11/25 10:57:41;;;;;;;38.55;22.55;;;6.10;89.60;;;;;;4943167;28;20055;-76
2021/11/25 11:00:23;;;;;;;40.13;22.17;;;6.10;89.50;;;;;;4930943;29;20106;-76
2021/11/25 11:03:02;;;;;;;40.80;24.17;;;6.10;89.60;;;;;;4931709;29;20114;-76
2021/11/25 11:05:27;;;;;;;37.72;22.45;;;6.10;89.60;;;;;;4932712;29;20024;-75
2021/11/25 11:08:05;;;;;;;41.67;23.90;;;6.00;90.20;;;;;;4926735;29;20158;-76
2021/11/25 11:10:31;;;;;;;43.25;22.80;;;6.10;90.10;;;;;;4926039;29;20068;-76
2021/11/25 11:15:55;;;;;;;38.17;22.15;;;6.10;90.00;;;;;;4926206;29;20036;-74
2021/11/25 11:18:44;;;;;;;42.10;23.67;;;6.00;90.00;;;;;;4928362;29;20406;-74
2021/11/25 11:21:31;;;;;;;38.08;23.42;;;6.00;90.20;;;;;;4940384;29;20090;-76
2021/11/25 11:24:05;;;;;;;34.10;22.27;;;5.90;90.70;;;;;;4935584;28;20107;-76
2021/11/25 11:26:31;;;;;;;40.25;24.08;;;5.90;91.20;;;;;;4927330;29;20044;-75
2021/11/25 11:28:56;;;;;;;37.58;23.52;;;5.80;91.40;;;;;;4942158;28;20134;-74
2021/11/25 11:31:23;;;;;;;37.83;23.88;;;5.80;91.60;;;;;;4924422;29;20491;-75
2021/11/25 11:33:49;;;;;;;40.00;24.50;;;5.80;92.00;;;;;;4929160;28;20091;-74
2021/11/25 11:36:15;;;;;;;44.70;27.08;;;5.70;92.10;;;;;;4928862;29;20139;-77
2021/11/25 11:38:41;;;;;;;45.35;26.65;;;5.70;92.70;;;;;;4928467;29;20116;-74
2021/11/25 11:41:06;;;;;;;47.15;26.02;;;5.70;93.20;;;;;;4925908;29;20031;-73
2021/11/25 11:43:32;;;;;;;48.20;25.98;;;5.70;93.70;;;;;;4927792;29;20114;-74
2021/11/25 11:45:58;;;;;;;43.30;24.45;;;5.60;93.30;;;;;;4949726;28;20110;-75
2021/11/25 11:48:25;;;;;;;53.60;28.45;;;5.60;93.60;;;;;;4929891;29;20142;-74
2021/11/25 11:50:55;;;;;;;46.03;26.52;;;5.60;94.10;;;;;;4927273;28;20042;-75
2021/11/25 11:53:25;;;;;;;47.38;27.52;;;5.50;94.20;;;;;;4938242;28;20050;-75
2021/11/25 11:55:59;;;;;;;51.88;29.52;;;5.50;94.60;;;;;;4932350;28;20330;-75
2021/11/25 11:58:28;;;;;;;49.60;28.45;;;5.40;94.90;;;;;;4932190;29;20035;-75
2021/11/25 12:01:13;;;;;;;49.42;27.38;;;5.40;95.40;;;;;;4936851;29;20100;-75
2021/11/25 12:03:47;;;;;;;52.42;28.40;;;5.30;95.50;;;;;;4928559;29;20028;-75
2021/11/25 12:06:52;;;;;;;52.88;31.38;;;5.20;96.10;;;;;;4932345;29;20031;-76
2021/11/25 12:09:23;;;;;;;55.72;30.10;;;5.20;96.50;;;;;;4925716;29;20031;-74
2021/11/25 12:12:18;;;;;;;52.67;29.52;;;5.10;97.00;;;;;;4930445;29;20024;-75
2021/11/25 12:14:52;;;;;;;59.15;31.65;;;5.10;97.50;;;;;;4932958;28;20088;-76
2021/11/25 12:17:34;;;;;;;61.58;33.22;;;5.10;97.60;;;;;;4934500;29;20026;-75
2021/11/25 12:20:23;;;;;;;58.45;31.63;;;5.10;97.80;;;;;;4926500;29;20024;-76
2021/11/25 12:22:52;;;;;;;57.10;32.90;;;5.00;97.80;;;;;;4920080;29;20138;-75
2021/11/25 12:25:33;;;;;;;70.95;35.78;;;5.00;98.00;;;;;;4931166;29;20046;-74
2021/11/25 12:28:18;;;;;;;;;;;5.10;98.10;;;;;;4933324;29;20027;-76
2021/11/25 12:30:52;;;;;;;54.05;30.17;;;5.10;98.30;;;;;;4935302;29;20014;-75
2021/11/25 12:33:38;;;;;;;54.20;33.75;;;5.00;98.30;;;;;;4932468;29;20019;-78
2021/11/25 12:36:06;;;;;;;60.40;34.75;;;5.00;98.50;;;;;;4935832;29;20589;-75
2021/11/25 12:38:37;;;;;;;55.42;34.55;;;5.00;98.50;;;;;;4929433;29;20042;-76
2021/11/25 12:41:08;;;;;;;61.08;34.97;;;5.10;98.50;;;;;;4935054;29;20354;-76
2021/11/25 12:43:40;;;;;;;61.25;34.78;;;5.10;98.60;;;;;;4947907;28;20405;-77
2021/11/25 12:46:13;;;;;;;68.70;37.03;;;5.10;98.60;;;;;;4928597;29;20491;-76
2021/11/25 12:48:41;;;;;;;64.78;36.70;;;5.10;98.60;;;;;;4947053;28;20040;-75
2021/11/25 12:51:22;;;;;;;58.53;33.67;;;5.10;98.70;;;;;;4940163;29;20322;-73
2021/11/25 12:53:53;;;;;;;58.00;33.65;;;5.10;98.60;;;;;;4932893;28;20490;-75
2021/11/25 12:56:19;;;;;;;60.13;34.08;;;5.10;98.70;;;;;;4923347;29;20036;-75